Prince Rupert — 3ETX2 — position and weather

sailwx.info

Track history (hours):
 
Tides and Currents Weather Stations Pressure Air Temp Water Temp Dewpoint Dewpoint Depression Visibility Wind Speed Wind Dir Waves Ship Positions

Prince Rupert

Last reported at 2018-Apr-21 03:48 UTC. Time now 2018-Apr-22 02:29 UTC.
Position N 35°01' E 140°26'.

Length 140 m; draft 5.5 m.

Type: Cargo ship. MMSI: 372427000.

Date/timePositionNaut miles runAvg speedWind from/ knotsBaromVisibWave heightAir tempDewpointWater temp
2018-Apr-21 03:48N 35°01' E 140°26'913.6
2018-Apr-21 03:07N 34°56' E 140°16'314.8
2018-Apr-21 02:56N 34°55' E 140°13'715.0
2018-Apr-21 02:29N 34°51' E 140°06'1114.1
2018-Apr-21 01:42N 34°46' E 139°54'314.4
2018-Apr-21 01:30N 34°45' E 139°51'1313.7
2018-Apr-21 00:32N 34°41' E 139°36'113.3
2018-Apr-21 00:30N 34°41' E 139°35'713.6
2018-Apr-21 00:00N 34°38' E 139°28'713.3
2018-Apr-20 23:29N 34°35' E 139°20'612.9
2018-Apr-20 23:00N 34°33' E 139°13'713.6
2018-Apr-20 22:30N 34°30' E 139°06'713.2
2018-Apr-20 22:00N 34°29' E 138°58'1013.3
2018-Apr-20 21:13N 34°29' E 138°45'313.3
2018-Apr-20 21:00N 34°29' E 138°42'713.3
2018-Apr-20 20:30N 34°29' E 138°33'712.9
2018-Apr-20 19:56N 34°28' E 138°25'613.0
2018-Apr-20 19:26N 34°28' E 138°17'812.6
2018-Apr-20 18:48N 34°27' E 138°07'3112.9
2018-Apr-20 16:26N 34°26' E 137°30'613.4
2018-Apr-20 15:59N 34°25' E 137°23'613.3
2018-Apr-20 15:30N 34°25' E 137°15'713.2
2018-Apr-20 15:00N 34°25' E 137°07'124 9.8
2018-Apr-20 02:21N 33°18' E 135°02'22 0.5
2018-Apr-18 09:19N 33°40' E 134°60'512.9
2018-Apr-18 08:53N 33°45' E 134°59'513.2
2018-Apr-18 08:30N 33°50' E 134°58'613.0
2018-Apr-18 08:00N 33°57' E 134°58'612.9
2018-Apr-18 07:30N 34°03' E 134°58'713.6
2018-Apr-18 07:00N 34°10' E 134°57'714.1
2018-Apr-18 06:30N 34°17' E 134°58'714.2
2018-Apr-18 06:00N 34°24' E 135°00'713.9
2018-Apr-18 05:30N 34°30' E 135°04'4 8.7
2018-Apr-18 05:00N 34°34' E 135°05'3 5.2
2018-Apr-18 04:31N 34°36' E 135°03'510.4
2018-Apr-18 04:01N 34°36' E 134°57'4 8.4
2018-Apr-18 03:31N 34°38' E 134°52'4 8.1
2018-Apr-18 03:00N 34°41' E 134°50'1 2.1
2018-Apr-18 02:24N 34°43' E 134°50'0 0.0
2018-Apr-18 02:00N 34°43' E 134°50'0 0.0
2018-Apr-18 01:24N 34°43' E 134°50'0 0.0
2018-Apr-18 00:24N 34°43' E 134°50'0 0.0
2018-Apr-18 00:00N 34°43' E 134°50'0 0.0
2018-Apr-17 23:24N 34°43' E 134°50'0 0.0
2018-Apr-17 21:42N 34°43' E 134°50'0 0.0
2018-Apr-17 21:24N 34°43' E 134°50'0 0.0
2018-Apr-17 21:00N 34°43' E 134°50'0 0.0
2018-Apr-17 20:30N 34°43' E 134°50'0 0.0
2018-Apr-17 20:00N 34°43' E 134°50'0 0.0
2018-Apr-17 19:21N 34°43' E 134°50'0 0.0
2018-Apr-17 18:54N 34°43' E 134°50'0 0.0
2018-Apr-17 18:30N 34°43' E 134°50'0 0.0
2018-Apr-17 18:00N 34°43' E 134°50'0 0.0
2018-Apr-17 17:30N 34°43' E 134°50'0 0.0
2018-Apr-17 16:54N 34°43' E 134°50'0 0.0
2018-Apr-17 16:24N 34°43' E 134°50'0 0.0
2018-Apr-17 16:00N 34°43' E 134°50'0 0.0
2018-Apr-17 15:27N 34°43' E 134°50'0 0.0
2018-Apr-17 14:54N 34°43' E 134°50'0 0.0
2018-Apr-17 11:06N 34°43' E 134°50'0 0.0
2018-Apr-17 10:24N 34°43' E 134°50'0 0.0
2018-Apr-17 09:30N 34°43' E 134°50'0 0.0
2018-Apr-17 08:54N 34°43' E 134°50'0 0.0
2018-Apr-17 08:24N 34°43' E 134°50'0 0.0
2018-Apr-17 07:57N 34°43' E 134°50'0 0.0
2018-Apr-17 07:30N 34°43' E 134°50'0 0.0
2018-Apr-17 07:00N 34°43' E 134°50'0 0.0
2018-Apr-17 06:24N 34°43' E 134°50'0 0.0
2018-Apr-17 05:36N 34°43' E 134°50'0 0.0
2018-Apr-17 05:30N 34°43' E 134°50'0 0.0
2018-Apr-17 04:54N 34°43' E 134°50'0 0.0
2018-Apr-17 01:58N 34°43' E 134°50'0 0.0
2018-Apr-17 00:27N 34°43' E 134°50'1 3.3
2018-Apr-17 00:00N 34°41' E 134°49'3 5.9
2018-Apr-16 23:30N 34°41' E 134°46'0 0.0
2018-Apr-16 22:59N 34°41' E 134°46'0 0.1
2018-Apr-16 22:23N 34°41' E 134°46'0 0.0
2018-Apr-16 21:59N 34°41' E 134°46'0 0.0
2018-Apr-16 21:29N 34°41' E 134°46'0 0.0
2018-Apr-16 20:59N 34°41' E 134°46'0 0.0
2018-Apr-16 20:29N 34°41' E 134°46'0 0.1
2018-Apr-16 19:59N 34°41' E 134°46'0 0.1
2018-Apr-16 19:29N 34°41' E 134°46'0 0.0
2018-Apr-16 18:59N 34°41' E 134°46'0 0.0
2018-Apr-16 18:29N 34°41' E 134°46'0 0.0
2018-Apr-16 17:59N 34°41' E 134°46'0 0.0
2018-Apr-16 17:25N 34°41' E 134°46'0 0.0
2018-Apr-16 16:56N 34°41' E 134°46'0 0.0
2018-Apr-16 16:28N 34°41' E 134°46'0 0.0
2018-Apr-16 15:59N 34°41' E 134°46'0 0.1
2018-Apr-16 15:28N 34°41' E 134°46'0 0.0
2018-Apr-16 14:59N 34°41' E 134°46'0 0.1
2018-Apr-16 14:29N 34°41' E 134°46'0 0.0
2018-Apr-16 13:58N 34°41' E 134°46'0 0.1
2018-Apr-16 13:28N 34°41' E 134°46'0 0.0
2018-Apr-16 12:59N 34°41' E 134°46'0 0.1
2018-Apr-16 12:29N 34°41' E 134°46'0 0.0
2018-Apr-16 11:58N 34°41' E 134°46'0 0.0
2018-Apr-16 11:29N 34°41' E 134°46'0 0.0
2018-Apr-16 10:58N 34°41' E 134°46'0 0.1
2018-Apr-16 10:29N 34°41' E 134°46'0 0.0
2018-Apr-16 09:59N 34°41' E 134°46'0 0.1
2018-Apr-16 09:29N 34°41' E 134°46'0 0.2
2018-Apr-16 08:59N 34°41' E 134°46'0 0.0
2018-Apr-16 08:28N 34°41' E 134°46'0 0.0
2018-Apr-16 07:58N 34°41' E 134°46'0 0.1
2018-Apr-16 07:25N 34°41' E 134°46'0 0.0
2018-Apr-16 06:55N 34°41' E 134°46'0 0.0
2018-Apr-16 06:29N 34°41' E 134°46'0 0.0
2018-Apr-16 05:59N 34°41' E 134°46'0 0.0
2018-Apr-16 05:28N 34°41' E 134°46'0 0.0
2018-Apr-16 04:59N 34°41' E 134°46'0 0.0
2018-Apr-16 04:28N 34°41' E 134°46'0 0.0
2018-Apr-16 03:59N 34°41' E 134°46'0 0.0
2018-Apr-16 03:29N 34°41' E 134°46'0 0.0
2018-Apr-16 02:59N 34°41' E 134°46'0 0.1
2018-Apr-16 02:29N 34°41' E 134°46'0 0.0
2018-Apr-16 01:59N 34°41' E 134°46'0 0.1
2018-Apr-16 01:28N 34°41' E 134°46'0 0.1
2018-Apr-16 00:59N 34°41' E 134°46'0 0.0
2018-Apr-16 00:28N 34°41' E 134°46'0 0.0
2018-Apr-15 23:59N 34°41' E 134°46'0 0.0
2018-Apr-15 23:28N 34°41' E 134°46'0 0.0
2018-Apr-15 22:55N 34°41' E 134°46'0 0.1
2018-Apr-15 22:28N 34°41' E 134°46'0 0.0
2018-Apr-15 21:58N 34°41' E 134°46'0 0.0
2018-Apr-15 21:28N 34°41' E 134°46'0 0.1
2018-Apr-15 20:58N 34°41' E 134°46'0 0.1
2018-Apr-15 20:29N 34°41' E 134°46'0 0.1
2018-Apr-15 19:58N 34°41' E 134°46'0 0.1
2018-Apr-15 19:29N 34°41' E 134°46'0 0.0
2018-Apr-15 18:58N 34°41' E 134°46'0 0.0
2018-Apr-15 18:28N 34°41' E 134°46'0 0.0
2018-Apr-15 17:58N 34°41' E 134°46'0 0.0
2018-Apr-15 17:29N 34°41' E 134°46'0 0.0
2018-Apr-15 16:58N 34°41' E 134°46'0 0.0
2018-Apr-15 16:29N 34°41' E 134°46'0 0.0
2018-Apr-15 15:58N 34°41' E 134°46'0 0.0
2018-Apr-15 15:29N 34°41' E 134°46'0 0.1
2018-Apr-15 14:55N 34°41' E 134°46'0 0.1
2018-Apr-15 14:29N 34°41' E 134°46'0 0.0
2018-Apr-15 13:59N 34°41' E 134°46'0 0.0
2018-Apr-15 13:29N 34°41' E 134°46'0 0.1
2018-Apr-15 12:58N 34°41' E 134°46'0 0.0
2018-Apr-15 12:28N 34°41' E 134°46'0 0.1
2018-Apr-15 11:59N 34°41' E 134°46'0 0.0
2018-Apr-15 11:28N 34°41' E 134°46'0 0.0
2018-Apr-15 10:58N 34°41' E 134°46'0 0.1
2018-Apr-15 10:29N 34°41' E 134°46'0 0.1
2018-Apr-15 09:58N 34°41' E 134°46'0 0.1
2018-Apr-15 09:28N 34°41' E 134°46'0 0.1
2018-Apr-15 08:59N 34°41' E 134°46'0 0.1
2018-Apr-15 08:28N 34°41' E 134°46'0 0.0
2018-Apr-15 07:59N 34°41' E 134°46'0 0.1
2018-Apr-15 07:29N 34°41' E 134°46'0 0.0
2018-Apr-15 06:55N 34°41' E 134°46'0 0.0
2018-Apr-15 06:28N 34°41' E 134°46'0 0.0
2018-Apr-15 05:58N 34°41' E 134°46'0 0.1
2018-Apr-15 05:30N 34°41' E 134°46'1 2.2
2018-Apr-15 05:00N 34°40' E 134°47'4 8.7
2018-Apr-15 04:30N 34°38' E 134°51'4 7.9
2018-Apr-15 04:00N 34°37' E 134°56'4 8.2
2018-Apr-15 03:30N 34°37' E 135°01'4 8.7
2018-Apr-15 03:00N 34°35' E 135°06'4 7.1
2018-Apr-15 02:30N 34°32' E 135°08'510.4
2018-Apr-15 02:00N 34°28' E 135°05'510.4
2018-Apr-15 01:30N 34°23' E 135°03'510.7
2018-Apr-15 01:00N 34°18' E 134°60'510.7
2018-Apr-15 00:30N 34°13' E 134°59'5 9.7
2018-Apr-15 00:00N 34°08' E 134°59'3 6.0
2018-Apr-14 23:30N 34°05' E 134°60'5 9.6
2018-Apr-14 23:00N 34°00' E 134°60'510.1
2018-Apr-14 22:30N 33°55' E 134°60'510.1
2018-Apr-14 21:58N 33°50' E 134°59'4 9.3
2018-Apr-14 21:30N 33°46' E 134°57'1 0.3
2018-Apr-14 17:01N 33°47' E 134°56'0 2.0
2018-Apr-14 17:00N 33°47' E 134°56'  
2018-Apr-12 11:08N 33°18' E 134°43'  
Track history (hours):
 
Tides and Currents Weather Stations Pressure Air Temp Water Temp Dewpoint Dewpoint Depression Visibility Wind Speed Wind Dir Waves Ship Positions

Prince Rupert

Last reported at 2018-Apr-21 03:48 UTC. Time now 2018-Apr-22 02:29 UTC.
Position N 35°01' E 140°26'.

Length 140 m; draft 5.5 m.

Type: Cargo ship. MMSI: 372427000.

Date/timePositionNaut miles runAvg speedWind from/ knotsBaromVisibWave heightAir tempDewpointWater temp
2018-Apr-21 03:48N 35°01' E 140°26'913.6
2018-Apr-21 03:07N 34°56' E 140°16'314.8
2018-Apr-21 02:56N 34°55' E 140°13'715.0
2018-Apr-21 02:29N 34°51' E 140°06'1114.1
2018-Apr-21 01:42N 34°46' E 139°54'314.4
2018-Apr-21 01:30N 34°45' E 139°51'1313.7
2018-Apr-21 00:32N 34°41' E 139°36'113.3
2018-Apr-21 00:30N 34°41' E 139°35'713.6
2018-Apr-21 00:00N 34°38' E 139°28'713.3
2018-Apr-20 23:29N 34°35' E 139°20'612.9
2018-Apr-20 23:00N 34°33' E 139°13'713.6
2018-Apr-20 22:30N 34°30' E 139°06'713.2
2018-Apr-20 22:00N 34°29' E 138°58'1013.3
2018-Apr-20 21:13N 34°29' E 138°45'313.3
2018-Apr-20 21:00N 34°29' E 138°42'713.3
2018-Apr-20 20:30N 34°29' E 138°33'712.9
2018-Apr-20 19:56N 34°28' E 138°25'613.0
2018-Apr-20 19:26N 34°28' E 138°17'812.6
2018-Apr-20 18:48N 34°27' E 138°07'3112.9
2018-Apr-20 16:26N 34°26' E 137°30'613.4
2018-Apr-20 15:59N 34°25' E 137°23'613.3
2018-Apr-20 15:30N 34°25' E 137°15'713.2
2018-Apr-20 15:00N 34°25' E 137°07'124 9.8
2018-Apr-20 02:21N 33°18' E 135°02'22 0.5
2018-Apr-18 09:19N 33°40' E 134°60'512.9
2018-Apr-18 08:53N 33°45' E 134°59'513.2
2018-Apr-18 08:30N 33°50' E 134°58'613.0
2018-Apr-18 08:00N 33°57' E 134°58'612.9
2018-Apr-18 07:30N 34°03' E 134°58'713.6
2018-Apr-18 07:00N 34°10' E 134°57'714.1
2018-Apr-18 06:30N 34°17' E 134°58'714.2
2018-Apr-18 06:00N 34°24' E 135°00'713.9
2018-Apr-18 05:30N 34°30' E 135°04'4 8.7
2018-Apr-18 05:00N 34°34' E 135°05'3 5.2
2018-Apr-18 04:31N 34°36' E 135°03'510.4
2018-Apr-18 04:01N 34°36' E 134°57'4 8.4
2018-Apr-18 03:31N 34°38' E 134°52'4 8.1
2018-Apr-18 03:00N 34°41' E 134°50'1 2.1
2018-Apr-18 02:24N 34°43' E 134°50'0 0.0
2018-Apr-18 02:00N 34°43' E 134°50'0 0.0
2018-Apr-18 01:24N 34°43' E 134°50'0 0.0
2018-Apr-18 00:24N 34°43' E 134°50'0 0.0
2018-Apr-18 00:00N 34°43' E 134°50'0 0.0
2018-Apr-17 23:24N 34°43' E 134°50'0 0.0
2018-Apr-17 21:42N 34°43' E 134°50'0 0.0
2018-Apr-17 21:24N 34°43' E 134°50'0 0.0
2018-Apr-17 21:00N 34°43' E 134°50'0 0.0
2018-Apr-17 20:30N 34°43' E 134°50'0 0.0
2018-Apr-17 20:00N 34°43' E 134°50'0 0.0
2018-Apr-17 19:21N 34°43' E 134°50'0 0.0
2018-Apr-17 18:54N 34°43' E 134°50'0 0.0
2018-Apr-17 18:30N 34°43' E 134°50'0 0.0
2018-Apr-17 18:00N 34°43' E 134°50'0 0.0
2018-Apr-17 17:30N 34°43' E 134°50'0 0.0
2018-Apr-17 16:54N 34°43' E 134°50'0 0.0
2018-Apr-17 16:24N 34°43' E 134°50'0 0.0
2018-Apr-17 16:00N 34°43' E 134°50'0 0.0
2018-Apr-17 15:27N 34°43' E 134°50'0 0.0
2018-Apr-17 14:54N 34°43' E 134°50'0 0.0
2018-Apr-17 11:06N 34°43' E 134°50'0 0.0
2018-Apr-17 10:24N 34°43' E 134°50'0 0.0
2018-Apr-17 09:30N 34°43' E 134°50'0 0.0
2018-Apr-17 08:54N 34°43' E 134°50'0 0.0
2018-Apr-17 08:24N 34°43' E 134°50'0 0.0
2018-Apr-17 07:57N 34°43' E 134°50'0 0.0
2018-Apr-17 07:30N 34°43' E 134°50'0 0.0
2018-Apr-17 07:00N 34°43' E 134°50'0 0.0
2018-Apr-17 06:24N 34°43' E 134°50'0 0.0
2018-Apr-17 05:36N 34°43' E 134°50'0 0.0
2018-Apr-17 05:30N 34°43' E 134°50'0 0.0
2018-Apr-17 04:54N 34°43' E 134°50'0 0.0
2018-Apr-17 01:58N 34°43' E 134°50'0 0.0
2018-Apr-17 00:27N 34°43' E 134°50'1 3.3
2018-Apr-17 00:00N 34°41' E 134°49'3 5.9
2018-Apr-16 23:30N 34°41' E 134°46'0 0.0
2018-Apr-16 22:59N 34°41' E 134°46'0 0.1
2018-Apr-16 22:23N 34°41' E 134°46'0 0.0
2018-Apr-16 21:59N 34°41' E 134°46'0 0.0
2018-Apr-16 21:29N 34°41' E 134°46'0 0.0
2018-Apr-16 20:59N 34°41' E 134°46'0 0.0
2018-Apr-16 20:29N 34°41' E 134°46'0 0.1
2018-Apr-16 19:59N 34°41' E 134°46'0 0.1
2018-Apr-16 19:29N 34°41' E 134°46'0 0.0
2018-Apr-16 18:59N 34°41' E 134°46'0 0.0
2018-Apr-16 18:29N 34°41' E 134°46'0 0.0
2018-Apr-16 17:59N 34°41' E 134°46'0 0.0
2018-Apr-16 17:25N 34°41' E 134°46'0 0.0
2018-Apr-16 16:56N 34°41' E 134°46'0 0.0
2018-Apr-16 16:28N 34°41' E 134°46'0 0.0
2018-Apr-16 15:59N 34°41' E 134°46'0 0.1
2018-Apr-16 15:28N 34°41' E 134°46'0 0.0
2018-Apr-16 14:59N 34°41' E 134°46'0 0.1
2018-Apr-16 14:29N 34°41' E 134°46'0 0.0
2018-Apr-16 13:58N 34°41' E 134°46'0 0.1
2018-Apr-16 13:28N 34°41' E 134°46'0 0.0
2018-Apr-16 12:59N 34°41' E 134°46'0 0.1
2018-Apr-16 12:29N 34°41' E 134°46'0 0.0
2018-Apr-16 11:58N 34°41' E 134°46'0 0.0
2018-Apr-16 11:29N 34°41' E 134°46'0 0.0
2018-Apr-16 10:58N 34°41' E 134°46'0 0.1
2018-Apr-16 10:29N 34°41' E 134°46'0 0.0
2018-Apr-16 09:59N 34°41' E 134°46'0 0.1
2018-Apr-16 09:29N 34°41' E 134°46'0 0.2
2018-Apr-16 08:59N 34°41' E 134°46'0 0.0
2018-Apr-16 08:28N 34°41' E 134°46'0 0.0
2018-Apr-16 07:58N 34°41' E 134°46'0 0.1
2018-Apr-16 07:25N 34°41' E 134°46'0 0.0
2018-Apr-16 06:55N 34°41' E 134°46'0 0.0
2018-Apr-16 06:29N 34°41' E 134°46'0 0.0
2018-Apr-16 05:59N 34°41' E 134°46'0 0.0
2018-Apr-16 05:28N 34°41' E 134°46'0 0.0
2018-Apr-16 04:59N 34°41' E 134°46'0 0.0
2018-Apr-16 04:28N 34°41' E 134°46'0 0.0
2018-Apr-16 03:59N 34°41' E 134°46'0 0.0
2018-Apr-16 03:29N 34°41' E 134°46'0 0.0
2018-Apr-16 02:59N 34°41' E 134°46'0 0.1
2018-Apr-16 02:29N 34°41' E 134°46'0 0.0
2018-Apr-16 01:59N 34°41' E 134°46'0 0.1
2018-Apr-16 01:28N 34°41' E 134°46'0 0.1
2018-Apr-16 00:59N 34°41' E 134°46'0 0.0
2018-Apr-16 00:28N 34°41' E 134°46'0 0.0
2018-Apr-15 23:59N 34°41' E 134°46'0 0.0
2018-Apr-15 23:28N 34°41' E 134°46'0 0.0
2018-Apr-15 22:55N 34°41' E 134°46'0 0.1
2018-Apr-15 22:28N 34°41' E 134°46'0 0.0
2018-Apr-15 21:58N 34°41' E 134°46'0 0.0
2018-Apr-15 21:28N 34°41' E 134°46'0 0.1
2018-Apr-15 20:58N 34°41' E 134°46'0 0.1
2018-Apr-15 20:29N 34°41' E 134°46'0 0.1
2018-Apr-15 19:58N 34°41' E 134°46'0 0.1
2018-Apr-15 19:29N 34°41' E 134°46'0 0.0
2018-Apr-15 18:58N 34°41' E 134°46'0 0.0
2018-Apr-15 18:28N 34°41' E 134°46'0 0.0
2018-Apr-15 17:58N 34°41' E 134°46'0 0.0
2018-Apr-15 17:29N 34°41' E 134°46'0 0.0
2018-Apr-15 16:58N 34°41' E 134°46'0 0.0
2018-Apr-15 16:29N 34°41' E 134°46'0 0.0
2018-Apr-15 15:58N 34°41' E 134°46'0 0.0
2018-Apr-15 15:29N 34°41' E 134°46'0 0.1
2018-Apr-15 14:55N 34°41' E 134°46'0 0.1
2018-Apr-15 14:29N 34°41' E 134°46'0 0.0
2018-Apr-15 13:59N 34°41' E 134°46'0 0.0
2018-Apr-15 13:29N 34°41' E 134°46'0 0.1
2018-Apr-15 12:58N 34°41' E 134°46'0 0.0
2018-Apr-15 12:28N 34°41' E 134°46'0 0.1
2018-Apr-15 11:59N 34°41' E 134°46'0 0.0
2018-Apr-15 11:28N 34°41' E 134°46'0 0.0
2018-Apr-15 10:58N 34°41' E 134°46'0 0.1
2018-Apr-15 10:29N 34°41' E 134°46'0 0.1
2018-Apr-15 09:58N 34°41' E 134°46'0 0.1
2018-Apr-15 09:28N 34°41' E 134°46'0 0.1
2018-Apr-15 08:59N 34°41' E 134°46'0 0.1
2018-Apr-15 08:28N 34°41' E 134°46'0 0.0
2018-Apr-15 07:59N 34°41' E 134°46'0 0.1
2018-Apr-15 07:29N 34°41' E 134°46'0 0.0
2018-Apr-15 06:55N 34°41' E 134°46'0 0.0
2018-Apr-15 06:28N 34°41' E 134°46'0 0.0
2018-Apr-15 05:58N 34°41' E 134°46'0 0.1
2018-Apr-15 05:30N 34°41' E 134°46'1 2.2
2018-Apr-15 05:00N 34°40' E 134°47'4 8.7
2018-Apr-15 04:30N 34°38' E 134°51'4 7.9
2018-Apr-15 04:00N 34°37' E 134°56'4 8.2
2018-Apr-15 03:30N 34°37' E 135°01'4 8.7
2018-Apr-15 03:00N 34°35' E 135°06'4 7.1
2018-Apr-15 02:30N 34°32' E 135°08'510.4
2018-Apr-15 02:00N 34°28' E 135°05'510.4
2018-Apr-15 01:30N 34°23' E 135°03'510.7
2018-Apr-15 01:00N 34°18' E 134°60'510.7
2018-Apr-15 00:30N 34°13' E 134°59'5 9.7
2018-Apr-15 00:00N 34°08' E 134°59'3 6.0
2018-Apr-14 23:30N 34°05' E 134°60'5 9.6
2018-Apr-14 23:00N 34°00' E 134°60'510.1
2018-Apr-14 22:30N 33°55' E 134°60'510.1
2018-Apr-14 21:58N 33°50' E 134°59'4 9.3
2018-Apr-14 21:30N 33°46' E 134°57'1 0.3
2018-Apr-14 17:01N 33°47' E 134°56'0 2.0
2018-Apr-14 17:00N 33°47' E 134°56'  
2018-Apr-12 11:08N 33°18' E 134°43'  

Dump ship's entire track history